sensor_id;sensor_type;location;lat;lon;timestamp;temperature;humidity
909;DHT22;441;51.192;6.788;2024-02-28T00:00:55;20.60;51.10
909;DHT22;441;51.192;6.788;2024-02-28T00:03:21;20.60;51.20
909;DHT22;441;51.192;6.788;2024-02-28T00:05:49;20.60;51.20
909;DHT22;441;51.192;6.788;2024-02-28T00:08:16;20.60;51.30
909;DHT22;441;51.192;6.788;2024-02-28T00:10:44;20.60;51.30
909;DHT22;441;51.192;6.788;2024-02-28T00:13:11;20.60;51.30
909;DHT22;441;51.192;6.788;2024-02-28T00:15:38;20.60;51.30
909;DHT22;441;51.192;6.788;2024-02-28T00:18:06;20.60;51.30
909;DHT22;441;51.192;6.788;2024-02-28T00:20:33;20.60;51.40
909;DHT22;441;51.192;6.788;2024-02-28T00:22:59;20.60;51.30
909;DHT22;441;51.192;6.788;2024-02-28T00:25:26;20.50;51.40
909;DHT22;441;51.192;6.788;2024-02-28T00:27:53;20.50;51.30
909;DHT22;441;51.192;6.788;2024-02-28T00:30:20;20.50;51.30
909;DHT22;441;51.192;6.788;2024-02-28T00:32:46;20.50;51.40
909;DHT22;441;51.192;6.788;2024-02-28T00:35:14;20.50;51.40
909;DHT22;441;51.192;6.788;2024-02-28T00:37:41;20.50;51.40
909;DHT22;441;51.192;6.788;2024-02-28T00:40:09;20.40;51.30
909;DHT22;441;51.192;6.788;2024-02-28T00:42:35;20.50;51.50
909;DHT22;441;51.192;6.788;2024-02-28T00:45:03;20.40;51.30
909;DHT22;441;51.192;6.788;2024-02-28T00:47:29;20.40;51.40
909;DHT22;441;51.192;6.788;2024-02-28T00:49:57;20.40;51.30
909;DHT22;441;51.192;6.788;2024-02-28T00:52:25;20.40;51.40
909;DHT22;441;51.192;6.788;2024-02-28T00:54:52;20.40;51.40
909;DHT22;441;51.192;6.788;2024-02-28T00:57:18;20.40;51.40
909;DHT22;441;51.192;6.788;2024-02-28T00:59:45;20.40;51.40
909;DHT22;441;51.192;6.788;2024-02-28T01:02:12;20.40;51.40
909;DHT22;441;51.192;6.788;2024-02-28T01:04:39;20.40;51.50
909;DHT22;441;51.192;6.788;2024-02-28T01:07:06;20.30;51.40
909;DHT22;441;51.192;6.788;2024-02-28T01:09:34;20.40;51.50
909;DHT22;441;51.192;6.788;2024-02-28T01:12:01;20.30;51.40
909;DHT22;441;51.192;6.788;2024-02-28T01:14:27;20.30;51.40
909;DHT22;441;51.192;6.788;2024-02-28T01:16:54;20.30;51.40
909;DHT22;441;51.192;6.788;2024-02-28T01:19:21;20.30;51.40
909;DHT22;441;51.192;6.788;2024-02-28T01:21:47;20.30;51.40
909;DHT22;441;51.192;6.788;2024-02-28T01:24:14;20.30;51.50
909;DHT22;441;51.192;6.788;2024-02-28T01:26:42;20.30;51.50
909;DHT22;441;51.192;6.788;2024-02-28T01:29:09;20.30;51.50
909;DHT22;441;51.192;6.788;2024-02-28T01:31:36;20.20;51.40
909;DHT22;441;51.192;6.788;2024-02-28T01:34:02;20.20;51.40
909;DHT22;441;51.192;6.788;2024-02-28T01:36:29;20.20;51.40
909;DHT22;441;51.192;6.788;2024-02-28T01:38:56;20.20;51.40
909;DHT22;441;51.192;6.788;2024-02-28T01:41:22;20.20;51.40
909;DHT22;441;51.192;6.788;2024-02-28T01:43:50;20.30;51.40
909;DHT22;441;51.192;6.788;2024-02-28T01:46:24;20.20;51.40
909;DHT22;441;51.192;6.788;2024-02-28T01:48:52;20.20;51.40
909;DHT22;441;51.192;6.788;2024-02-28T01:51:20;20.20;51.40
909;DHT22;441;51.192;6.788;2024-02-28T01:53:47;20.20;51.40
909;DHT22;441;51.192;6.788;2024-02-28T01:56:15;20.20;51.50
909;DHT22;441;51.192;6.788;2024-02-28T01:58:43;20.20;51.50
909;DHT22;441;51.192;6.788;2024-02-28T02:01:14;20.20;51.40
909;DHT22;441;51.192;6.788;2024-02-28T02:03:41;20.20;51.50
909;DHT22;441;51.192;6.788;2024-02-28T02:06:09;20.20;51.50
909;DHT22;441;51.192;6.788;2024-02-28T02:08:37;20.20;51.50
909;DHT22;441;51.192;6.788;2024-02-28T02:11:04;20.10;51.40
909;DHT22;441;51.192;6.788;2024-02-28T02:13:31;20.10;51.40
909;DHT22;441;51.192;6.788;2024-02-28T02:15:58;20.20;51.50
909;DHT22;441;51.192;6.788;2024-02-28T02:18:26;20.20;51.50
909;DHT22;441;51.192;6.788;2024-02-28T02:20:56;20.10;51.40
909;DHT22;441;51.192;6.788;2024-02-28T02:23:26;20.10;51.50
909;DHT22;441;51.192;6.788;2024-02-28T02:25:53;20.10;51.40
909;DHT22;441;51.192;6.788;2024-02-28T02:28:19;20.10;51.50
909;DHT22;441;51.192;6.788;2024-02-28T02:30:46;20.10;51.60
909;DHT22;441;51.192;6.788;2024-02-28T02:33:13;20.10;51.60
909;DHT22;441;51.192;6.788;2024-02-28T02:35:40;20.10;51.60
909;DHT22;441;51.192;6.788;2024-02-28T02:38:06;20.10;51.60
909;DHT22;441;51.192;6.788;2024-02-28T02:40:34;20.10;51.60
909;DHT22;441;51.192;6.788;2024-02-28T02:43:01;20.10;51.60
909;DHT22;441;51.192;6.788;2024-02-28T02:45:28;20.10;51.60
909;DHT22;441;51.192;6.788;2024-02-28T02:47:54;20.10;51.60
909;DHT22;441;51.192;6.788;2024-02-28T02:50:21;20.00;51.50
909;DHT22;441;51.192;6.788;2024-02-28T02:52:48;20.00;51.50
909;DHT22;441;51.192;6.788;2024-02-28T02:55:14;20.10;51.60
909;DHT22;441;51.192;6.788;2024-02-28T02:57:43;20.00;51.50
909;DHT22;441;51.192;6.788;2024-02-28T03:00:10;20.00;51.50
909;DHT22;441;51.192;6.788;2024-02-28T03:02:37;20.00;51.60
909;DHT22;441;51.192;6.788;2024-02-28T03:05:05;20.00;51.60
909;DHT22;441;51.192;6.788;2024-02-28T03:07:32;20.00;51.60
909;DHT22;441;51.192;6.788;2024-02-28T03:09:59;20.10;52.20
909;DHT22;441;51.192;6.788;2024-02-28T03:12:26;20.00;51.70
909;DHT22;441;51.192;6.788;2024-02-28T03:14:54;20.00;51.70
909;DHT22;441;51.192;6.788;2024-02-28T03:17:21;20.00;51.70
909;DHT22;441;51.192;6.788;2024-02-28T03:19:46;20.00;51.60
909;DHT22;441;51.192;6.788;2024-02-28T03:22:13;20.00;51.70
909;DHT22;441;51.192;6.788;2024-02-28T03:24:40;20.00;51.70
909;DHT22;441;51.192;6.788;2024-02-28T03:27:07;20.00;51.70
909;DHT22;441;51.192;6.788;2024-02-28T03:29:34;20.00;51.70
909;DHT22;441;51.192;6.788;2024-02-28T03:32:02;20.00;51.70
909;DHT22;441;51.192;6.788;2024-02-28T03:34:29;20.00;51.70
909;DHT22;441;51.192;6.788;2024-02-28T03:36:55;20.00;51.70
909;DHT22;441;51.192;6.788;2024-02-28T03:39:22;20.00;51.70
909;DHT22;441;51.192;6.788;2024-02-28T03:41:49;20.00;51.70
909;DHT22;441;51.192;6.788;2024-02-28T03:44:16;20.00;51.70
909;DHT22;441;51.192;6.788;2024-02-28T03:46:43;19.90;51.60
909;DHT22;441;51.192;6.788;2024-02-28T03:49:11;20.00;51.70
909;DHT22;441;51.192;6.788;2024-02-28T03:51:39;19.90;51.60
909;DHT22;441;51.192;6.788;2024-02-28T03:54:06;20.00;51.80
909;DHT22;441;51.192;6.788;2024-02-28T03:56:33;19.90;51.70
909;DHT22;441;51.192;6.788;2024-02-28T03:59:00;20.00;52.30
909;DHT22;441;51.192;6.788;2024-02-28T04:01:27;19.90;51.80
909;DHT22;441;51.192;6.788;2024-02-28T04:03:54;19.90;51.70
909;DHT22;441;51.192;6.788;2024-02-28T04:06:22;19.90;51.80
909;DHT22;441;51.192;6.788;2024-02-28T04:08:48;19.90;51.90
909;DHT22;441;51.192;6.788;2024-02-28T04:11:15;19.90;51.80
909;DHT22;441;51.192;6.788;2024-02-28T04:13:42;19.90;51.90
909;DHT22;441;51.192;6.788;2024-02-28T04:16:09;19.90;51.90
909;DHT22;441;51.192;6.788;2024-02-28T04:18:36;19.90;51.90
909;DHT22;441;51.192;6.788;2024-02-28T04:21:03;19.90;51.90
909;DHT22;441;51.192;6.788;2024-02-28T04:23:31;19.90;51.90
909;DHT22;441;51.192;6.788;2024-02-28T04:25:58;19.90;51.90
909;DHT22;441;51.192;6.788;2024-02-28T04:28:24;19.90;51.90
909;DHT22;441;51.192;6.788;2024-02-28T04:30:51;19.90;52.00
909;DHT22;441;51.192;6.788;2024-02-28T04:33:18;19.90;52.00
909;DHT22;441;51.192;6.788;2024-02-28T04:35:45;19.90;52.00
909;DHT22;441;51.192;6.788;2024-02-28T04:38:11;19.90;52.00
909;DHT22;441;51.192;6.788;2024-02-28T04:40:39;19.90;52.10
909;DHT22;441;51.192;6.788;2024-02-28T04:43:06;19.90;52.10
909;DHT22;441;51.192;6.788;2024-02-28T04:45:33;19.90;52.20
909;DHT22;441;51.192;6.788;2024-02-28T04:47:59;19.90;52.20
909;DHT22;441;51.192;6.788;2024-02-28T04:50:26;19.90;52.20
909;DHT22;441;51.192;6.788;2024-02-28T04:52:53;19.90;52.30
909;DHT22;441;51.192;6.788;2024-02-28T04:55:21;19.90;52.30
909;DHT22;441;51.192;6.788;2024-02-28T04:57:49;19.90;52.20
909;DHT22;441;51.192;6.788;2024-02-28T05:00:16;19.90;52.20
909;DHT22;441;51.192;6.788;2024-02-28T05:02:43;19.90;52.20
909;DHT22;441;51.192;6.788;2024-02-28T05:05:09;19.90;52.20
909;DHT22;441;51.192;6.788;2024-02-28T05:07:36;19.90;52.20
909;DHT22;441;51.192;6.788;2024-02-28T05:10:03;19.90;52.20
909;DHT22;441;51.192;6.788;2024-02-28T05:12:30;19.90;52.20
909;DHT22;441;51.192;6.788;2024-02-28T05:14:58;19.90;52.30
909;DHT22;441;51.192;6.788;2024-02-28T05:17:25;19.90;52.40
909;DHT22;441;51.192;6.788;2024-02-28T05:19:53;19.90;52.30
909;DHT22;441;51.192;6.788;2024-02-28T05:22:19;19.90;52.30
909;DHT22;441;51.192;6.788;2024-02-28T05:24:46;19.90;52.30
909;DHT22;441;51.192;6.788;2024-02-28T05:27:13;19.90;52.40
909;DHT22;441;51.192;6.788;2024-02-28T05:29:40;19.90;52.40
909;DHT22;441;51.192;6.788;2024-02-28T05:32:09;19.90;52.40
909;DHT22;441;51.192;6.788;2024-02-28T05:34:36;19.90;52.40
909;DHT22;441;51.192;6.788;2024-02-28T05:37:02;19.90;52.50
909;DHT22;441;51.192;6.788;2024-02-28T05:39:29;19.90;52.50
909;DHT22;441;51.192;6.788;2024-02-28T05:41:56;19.90;52.50
909;DHT22;441;51.192;6.788;2024-02-28T05:44:23;19.90;52.50
909;DHT22;441;51.192;6.788;2024-02-28T05:46:50;19.90;52.50
909;DHT22;441;51.192;6.788;2024-02-28T05:49:18;19.90;52.40
909;DHT22;441;51.192;6.788;2024-02-28T05:51:45;19.80;52.30
909;DHT22;441;51.192;6.788;2024-02-28T05:54:12;19.90;52.50
909;DHT22;441;51.192;6.788;2024-02-28T05:56:39;19.90;52.70
909;DHT22;441;51.192;6.788;2024-02-28T05:59:06;19.90;54.20
909;DHT22;441;51.192;6.788;2024-02-28T06:01:32;19.90;54.30
909;DHT22;441;51.192;6.788;2024-02-28T06:03:59;19.90;54.40
909;DHT22;441;51.192;6.788;2024-02-28T06:06:28;19.90;54.80
909;DHT22;441;51.192;6.788;2024-02-28T06:08:55;19.90;55.50
909;DHT22;441;51.192;6.788;2024-02-28T06:11:22;19.90;55.70
909;DHT22;441;51.192;6.788;2024-02-28T06:13:50;19.90;55.80
909;DHT22;441;51.192;6.788;2024-02-28T06:16:17;19.90;55.90
909;DHT22;441;51.192;6.788;2024-02-28T06:18:44;19.90;55.80
909;DHT22;441;51.192;6.788;2024-02-28T06:21:11;19.90;55.80
909;DHT22;441;51.192;6.788;2024-02-28T06:23:39;19.90;55.80
909;DHT22;441;51.192;6.788;2024-02-28T06:26:05;20.00;55.90
909;DHT22;441;51.192;6.788;2024-02-28T06:28:32;19.90;55.70
909;DHT22;441;51.192;6.788;2024-02-28T06:30:59;19.90;55.60
909;DHT22;441;51.192;6.788;2024-02-28T06:33:26;20.00;55.60
909;DHT22;441;51.192;6.788;2024-02-28T06:35:52;20.00;55.60
909;DHT22;441;51.192;6.788;2024-02-28T06:38:19;20.00;55.50
909;DHT22;441;51.192;6.788;2024-02-28T06:40:47;20.00;55.40
909;DHT22;441;51.192;6.788;2024-02-28T06:43:14;20.00;55.40
909;DHT22;441;51.192;6.788;2024-02-28T06:45:41;20.00;55.30
909;DHT22;441;51.192;6.788;2024-02-28T06:48:08;20.00;55.30
909;DHT22;441;51.192;6.788;2024-02-28T06:50:34;20.00;55.10
909;DHT22;441;51.192;6.788;2024-02-28T06:53:01;20.00;55.10
909;DHT22;441;51.192;6.788;2024-02-28T06:55:28;20.00;55.00
909;DHT22;441;51.192;6.788;2024-02-28T06:57:56;20.00;55.00
909;DHT22;441;51.192;6.788;2024-02-28T07:00:23;20.00;54.90
909;DHT22;441;51.192;6.788;2024-02-28T07:02:50;20.00;54.80
909;DHT22;441;51.192;6.788;2024-02-28T07:05:17;20.00;54.80
909;DHT22;441;51.192;6.788;2024-02-28T07:07:43;20.00;54.70
909;DHT22;441;51.192;6.788;2024-02-28T07:10:10;20.00;54.70
909;DHT22;441;51.192;6.788;2024-02-28T07:12:37;20.00;54.60
909;DHT22;441;51.192;6.788;2024-02-28T07:15:06;20.00;54.50
909;DHT22;441;51.192;6.788;2024-02-28T07:17:32;20.00;54.40
909;DHT22;441;51.192;6.788;2024-02-28T07:19:59;20.00;54.40
909;DHT22;441;51.192;6.788;2024-02-28T07:22:26;20.00;54.30
909;DHT22;441;51.192;6.788;2024-02-28T07:24:52;20.00;54.20
909;DHT22;441;51.192;6.788;2024-02-28T07:27:21;20.00;54.10
909;DHT22;441;51.192;6.788;2024-02-28T07:29:48;20.00;54.10
909;DHT22;441;51.192;6.788;2024-02-28T07:32:16;20.00;54.00
909;DHT22;441;51.192;6.788;2024-02-28T07:34:43;20.00;54.00
909;DHT22;441;51.192;6.788;2024-02-28T07:37:09;20.00;53.90
909;DHT22;441;51.192;6.788;2024-02-28T07:39:37;20.10;54.00
909;DHT22;441;51.192;6.788;2024-02-28T07:42:05;20.00;53.80
909;DHT22;441;51.192;6.788;2024-02-28T07:44:32;20.00;53.80
909;DHT22;441;51.192;6.788;2024-02-28T07:46:59;20.00;53.70
909;DHT22;441;51.192;6.788;2024-02-28T07:49:27;20.00;53.70
909;DHT22;441;51.192;6.788;2024-02-28T07:51:53;20.00;53.60
909;DHT22;441;51.192;6.788;2024-02-28T07:54:20;20.00;53.60
909;DHT22;441;51.192;6.788;2024-02-28T07:56:48;20.10;53.60
909;DHT22;441;51.192;6.788;2024-02-28T07:59:14;20.00;53.50
909;DHT22;441;51.192;6.788;2024-02-28T08:01:41;20.10;53.50
909;DHT22;441;51.192;6.788;2024-02-28T08:04:08;20.00;53.30
909;DHT22;441;51.192;6.788;2024-02-28T08:06:36;20.00;53.30
909;DHT22;441;51.192;6.788;2024-02-28T08:09:03;20.00;53.30
909;DHT22;441;51.192;6.788;2024-02-28T08:11:30;20.00;53.20
909;DHT22;441;51.192;6.788;2024-02-28T08:13:57;20.10;53.20
909;DHT22;441;51.192;6.788;2024-02-28T08:16:24;20.00;53.10
909;DHT22;441;51.192;6.788;2024-02-28T08:18:50;20.10;53.10
909;DHT22;441;51.192;6.788;2024-02-28T08:21:17;20.00;53.00
909;DHT22;441;51.192;6.788;2024-02-28T08:23:46;20.00;53.00
909;DHT22;441;51.192;6.788;2024-02-28T08:26:13;20.00;52.90
909;DHT22;441;51.192;6.788;2024-02-28T08:28:40;20.00;52.90
909;DHT22;441;51.192;6.788;2024-02-28T08:31:07;20.00;52.90
909;DHT22;441;51.192;6.788;2024-02-28T08:33:33;20.00;52.80
909;DHT22;441;51.192;6.788;2024-02-28T08:36:00;20.10;52.90
909;DHT22;441;51.192;6.788;2024-02-28T08:38:27;20.00;52.80
909;DHT22;441;51.192;6.788;2024-02-28T08:40:55;20.00;52.80
909;DHT22;441;51.192;6.788;2024-02-28T08:43:22;20.00;52.70
909;DHT22;441;51.192;6.788;2024-02-28T08:45:48;20.00;52.70
909;DHT22;441;51.192;6.788;2024-02-28T08:48:17;20.00;52.70
909;DHT22;441;51.192;6.788;2024-02-28T08:50:43;20.00;52.70
909;DHT22;441;51.192;6.788;2024-02-28T08:53:10;20.10;52.70
909;DHT22;441;51.192;6.788;2024-02-28T08:55:37;20.00;53.20
909;DHT22;441;51.192;6.788;2024-02-28T08:58:05;20.00;52.60
909;DHT22;441;51.192;6.788;2024-02-28T09:00:32;20.10;52.70
909;DHT22;441;51.192;6.788;2024-02-28T09:02:58;20.00;52.60
909;DHT22;441;51.192;6.788;2024-02-28T09:05:25;20.00;52.60
909;DHT22;441;51.192;6.788;2024-02-28T09:07:52;20.00;52.50
909;DHT22;441;51.192;6.788;2024-02-28T09:10:20;20.00;52.50
909;DHT22;441;51.192;6.788;2024-02-28T09:12:49;20.00;52.50
909;DHT22;441;51.192;6.788;2024-02-28T09:15:17;20.00;52.40
909;DHT22;441;51.192;6.788;2024-02-28T09:17:44;20.10;52.50
909;DHT22;441;51.192;6.788;2024-02-28T09:20:11;20.00;52.40
909;DHT22;441;51.192;6.788;2024-02-28T09:22:38;20.00;52.40
909;DHT22;441;51.192;6.788;2024-02-28T09:25:06;20.00;52.40
909;DHT22;441;51.192;6.788;2024-02-28T09:27:34;20.00;52.30
909;DHT22;441;51.192;6.788;2024-02-28T09:30:01;20.00;52.30
909;DHT22;441;51.192;6.788;2024-02-28T09:32:29;20.10;52.40
909;DHT22;441;51.192;6.788;2024-02-28T09:34:56;20.00;52.30
909;DHT22;441;51.192;6.788;2024-02-28T09:37:22;20.00;52.30
909;DHT22;441;51.192;6.788;2024-02-28T09:39:50;20.10;52.40
909;DHT22;441;51.192;6.788;2024-02-28T09:42:18;20.00;52.30
909;DHT22;441;51.192;6.788;2024-02-28T09:44:45;20.00;52.30
909;DHT22;441;51.192;6.788;2024-02-28T09:47:13;20.00;52.30
909;DHT22;441;51.192;6.788;2024-02-28T09:49:41;20.00;52.20
909;DHT22;441;51.192;6.788;2024-02-28T09:52:08;20.00;52.20
909;DHT22;441;51.192;6.788;2024-02-28T09:54:35;20.00;52.20
909;DHT22;441;51.192;6.788;2024-02-28T09:57:04;20.00;52.20
909;DHT22;441;51.192;6.788;2024-02-28T09:59:31;20.00;52.20
909;DHT22;441;51.192;6.788;2024-02-28T10:01:58;20.00;52.20
909;DHT22;441;51.192;6.788;2024-02-28T10:04:27;20.00;52.20
909;DHT22;441;51.192;6.788;2024-02-28T10:06:55;20.00;52.20
909;DHT22;441;51.192;6.788;2024-02-28T10:09:22;20.00;52.20
909;DHT22;441;51.192;6.788;2024-02-28T10:11:49;20.00;52.20
909;DHT22;441;51.192;6.788;2024-02-28T10:14:19;20.00;52.20
909;DHT22;441;51.192;6.788;2024-02-28T10:16:45;20.00;52.10
909;DHT22;441;51.192;6.788;2024-02-28T10:19:12;20.00;52.20
909;DHT22;441;51.192;6.788;2024-02-28T10:21:39;20.10;52.20
909;DHT22;441;51.192;6.788;2024-02-28T10:24:07;20.10;52.20
909;DHT22;441;51.192;6.788;2024-02-28T10:26:42;20.10;52.20
909;DHT22;441;51.192;6.788;2024-02-28T10:29:08;20.00;52.10
909;DHT22;441;51.192;6.788;2024-02-28T10:31:36;20.10;52.20
909;DHT22;441;51.192;6.788;2024-02-28T10:34:04;20.10;52.20
909;DHT22;441;51.192;6.788;2024-02-28T10:36:32;20.10;52.20
909;DHT22;441;51.192;6.788;2024-02-28T10:39:00;20.00;52.10
909;DHT22;441;51.192;6.788;2024-02-28T10:41:28;20.00;52.00
909;DHT22;441;51.192;6.788;2024-02-28T10:43:56;20.00;52.00
909;DHT22;441;51.192;6.788;2024-02-28T10:46:23;20.10;52.10
909;DHT22;441;51.192;6.788;2024-02-28T10:48:49;20.10;52.10
909;DHT22;441;51.192;6.788;2024-02-28T10:51:22;20.10;52.10
909;DHT22;441;51.192;6.788;2024-02-28T10:53:50;20.00;52.00
909;DHT22;441;51.192;6.788;2024-02-28T10:56:22;20.00;52.00
909;DHT22;441;51.192;6.788;2024-02-28T10:58:52;20.10;52.10
909;DHT22;441;51.192;6.788;2024-02-28T11:01:19;20.00;52.00
909;DHT22;441;51.192;6.788;2024-02-28T11:03:47;20.00;52.00
909;DHT22;441;51.192;6.788;2024-02-28T11:06:17;20.00;51.90
909;DHT22;441;51.192;6.788;2024-02-28T11:08:46;20.00;51.90
909;DHT22;441;51.192;6.788;2024-02-28T11:11:14;20.00;51.90
909;DHT22;441;51.192;6.788;2024-02-28T11:13:52;20.00;51.90
909;DHT22;441;51.192;6.788;2024-02-28T11:16:26;20.00;51.90
909;DHT22;441;51.192;6.788;2024-02-28T11:18:53;20.00;51.90
909;DHT22;441;51.192;6.788;2024-02-28T11:21:23;20.00;51.90
909;DHT22;441;51.192;6.788;2024-02-28T11:23:51;20.00;52.00
909;DHT22;441;51.192;6.788;2024-02-28T11:26:18;20.00;51.90
909;DHT22;441;51.192;6.788;2024-02-28T11:28:46;20.10;52.10
909;DHT22;441;51.192;6.788;2024-02-28T11:31:14;20.00;52.00
909;DHT22;441;51.192;6.788;2024-02-28T11:33:40;20.10;52.10
909;DHT22;441;51.192;6.788;2024-02-28T11:36:07;20.10;52.20
909;DHT22;441;51.192;6.788;2024-02-28T11:38:34;20.10;52.20
909;DHT22;441;51.192;6.788;2024-02-28T11:41:03;20.10;52.20
909;DHT22;441;51.192;6.788;2024-02-28T11:43:31;20.10;52.20
909;DHT22;441;51.192;6.788;2024-02-28T11:45:57;20.10;52.20
909;DHT22;441;51.192;6.788;2024-02-28T11:48:26;20.10;52.20
909;DHT22;441;51.192;6.788;2024-02-28T11:50:54;20.10;52.20
909;DHT22;441;51.192;6.788;2024-02-28T11:53:20;20.10;52.20
909;DHT22;441;51.192;6.788;2024-02-28T11:55:47;20.10;52.20
909;DHT22;441;51.192;6.788;2024-02-28T11:58:15;20.20;52.30
909;DHT22;441;51.192;6.788;2024-02-28T12:00:48;20.10;52.80
909;DHT22;441;51.192;6.788;2024-02-28T12:03:20;20.20;52.30
909;DHT22;441;51.192;6.788;2024-02-28T12:05:48;20.10;52.20
909;DHT22;441;51.192;6.788;2024-02-28T12:08:15;20.10;52.20
909;DHT22;441;51.192;6.788;2024-02-28T12:10:43;20.20;52.30
909;DHT22;441;51.192;6.788;2024-02-28T12:13:10;20.20;52.20
909;DHT22;441;51.192;6.788;2024-02-28T12:15:39;20.20;52.20
909;DHT22;441;51.192;6.788;2024-02-28T12:18:08;20.20;52.20
909;DHT22;441;51.192;6.788;2024-02-28T12:20:35;20.20;52.20
909;DHT22;441;51.192;6.788;2024-02-28T12:23:04;20.20;52.20
909;DHT22;441;51.192;6.788;2024-02-28T12:25:31;20.20;52.10
909;DHT22;441;51.192;6.788;2024-02-28T12:27:57;20.20;52.10
909;DHT22;441;51.192;6.788;2024-02-28T12:30:24;20.20;52.20
909;DHT22;441;51.192;6.788;2024-02-28T12:32:51;20.20;52.10
909;DHT22;441;51.192;6.788;2024-02-28T12:35:18;20.20;52.10
909;DHT22;441;51.192;6.788;2024-02-28T12:37:45;20.20;52.10
909;DHT22;441;51.192;6.788;2024-02-28T12:40:16;20.20;52.10
909;DHT22;441;51.192;6.788;2024-02-28T12:42:43;20.20;52.10
909;DHT22;441;51.192;6.788;2024-02-28T12:45:10;20.20;52.10
909;DHT22;441;51.192;6.788;2024-02-28T12:47:37;20.20;52.00
909;DHT22;441;51.192;6.788;2024-02-28T12:50:04;20.20;52.00
909;DHT22;441;51.192;6.788;2024-02-28T12:52:32;20.20;52.10
909;DHT22;441;51.192;6.788;2024-02-28T12:54:59;20.20;52.00
909;DHT22;441;51.192;6.788;2024-02-28T12:57:27;20.20;52.10
909;DHT22;441;51.192;6.788;2024-02-28T12:59:54;20.20;52.10
909;DHT22;441;51.192;6.788;2024-02-28T13:02:21;20.20;52.10
909;DHT22;441;51.192;6.788;2024-02-28T13:04:48;20.20;52.20
909;DHT22;441;51.192;6.788;2024-02-28T13:07:15;20.20;52.20
909;DHT22;441;51.192;6.788;2024-02-28T13:09:42;20.20;52.20
909;DHT22;441;51.192;6.788;2024-02-28T13:12:08;20.20;52.20
909;DHT22;441;51.192;6.788;2024-02-28T13:14:37;20.30;52.30
909;DHT22;441;51.192;6.788;2024-02-28T13:17:04;20.20;52.30
909;DHT22;441;51.192;6.788;2024-02-28T13:19:31;20.30;52.40
909;DHT22;441;51.192;6.788;2024-02-28T13:21:57;20.30;52.40
909;DHT22;441;51.192;6.788;2024-02-28T13:24:24;20.30;52.40
909;DHT22;441;51.192;6.788;2024-02-28T13:26:51;20.30;52.40
909;DHT22;441;51.192;6.788;2024-02-28T13:29:17;20.30;52.40
909;DHT22;441;51.192;6.788;2024-02-28T13:31:46;20.30;52.50
909;DHT22;441;51.192;6.788;2024-02-28T13:34:12;20.30;53.00
909;DHT22;441;51.192;6.788;2024-02-28T13:36:39;20.30;52.40
909;DHT22;441;51.192;6.788;2024-02-28T13:39:08;20.30;52.40
909;DHT22;441;51.192;6.788;2024-02-28T13:41:37;20.30;52.40
909;DHT22;441;51.192;6.788;2024-02-28T13:44:03;20.30;52.40
909;DHT22;441;51.192;6.788;2024-02-28T13:46:30;20.30;52.50
909;DHT22;441;51.192;6.788;2024-02-28T13:48:58;20.30;52.50
909;DHT22;441;51.192;6.788;2024-02-28T13:51:25;20.30;52.50
909;DHT22;441;51.192;6.788;2024-02-28T13:53:52;20.30;52.40
909;DHT22;441;51.192;6.788;2024-02-28T13:56:19;20.30;52.40
909;DHT22;441;51.192;6.788;2024-02-28T13:58:46;20.30;52.40
909;DHT22;441;51.192;6.788;2024-02-28T14:01:13;20.30;52.40
909;DHT22;441;51.192;6.788;2024-02-28T14:03:40;20.30;52.40
909;DHT22;441;51.192;6.788;2024-02-28T14:06:08;20.30;52.40
909;DHT22;441;51.192;6.788;2024-02-28T14:08:34;20.30;52.40
909;DHT22;441;51.192;6.788;2024-02-28T14:11:01;20.30;52.30
909;DHT22;441;51.192;6.788;2024-02-28T14:13:28;20.30;52.30
909;DHT22;441;51.192;6.788;2024-02-28T14:15:55;20.30;52.30
909;DHT22;441;51.192;6.788;2024-02-28T14:18:21;20.30;52.30
909;DHT22;441;51.192;6.788;2024-02-28T14:20:48;20.30;52.30
909;DHT22;441;51.192;6.788;2024-02-28T14:23:16;20.30;52.30
909;DHT22;441;51.192;6.788;2024-02-28T14:25:43;20.30;52.20
909;DHT22;441;51.192;6.788;2024-02-28T14:28:09;20.30;52.20
909;DHT22;441;51.192;6.788;2024-02-28T14:30:36;20.30;52.20
909;DHT22;441;51.192;6.788;2024-02-28T14:33:04;20.30;52.20
909;DHT22;441;51.192;6.788;2024-02-28T14:35:30;20.30;52.30
909;DHT22;441;51.192;6.788;2024-02-28T14:37:57;20.30;52.80
909;DHT22;441;51.192;6.788;2024-02-28T14:40:25;20.30;53.10
909;DHT22;441;51.192;6.788;2024-02-28T14:42:52;20.30;53.10
909;DHT22;441;51.192;6.788;2024-02-28T14:45:19;20.40;53.20
909;DHT22;441;51.192;6.788;2024-02-28T14:47:46;20.40;53.30
909;DHT22;441;51.192;6.788;2024-02-28T14:50:13;20.40;53.30
909;DHT22;441;51.192;6.788;2024-02-28T14:52:41;20.40;53.40
909;DHT22;441;51.192;6.788;2024-02-28T14:55:09;20.40;53.40
909;DHT22;441;51.192;6.788;2024-02-28T14:57:38;20.40;53.40
909;DHT22;441;51.192;6.788;2024-02-28T15:00:07;20.40;53.40
909;DHT22;441;51.192;6.788;2024-02-28T15:02:34;20.40;53.40
909;DHT22;441;51.192;6.788;2024-02-28T15:05:01;20.40;53.50
909;DHT22;441;51.192;6.788;2024-02-28T15:07:31;20.40;53.60
909;DHT22;441;51.192;6.788;2024-02-28T15:09:57;20.40;53.60
909;DHT22;441;51.192;6.788;2024-02-28T15:12:26;20.40;53.70
909;DHT22;441;51.192;6.788;2024-02-28T15:14:54;20.40;53.80
909;DHT22;441;51.192;6.788;2024-02-28T15:17:20;20.50;53.90
909;DHT22;441;51.192;6.788;2024-02-28T15:19:47;20.40;53.70
909;DHT22;441;51.192;6.788;2024-02-28T15:22:14;20.50;53.80
909;DHT22;441;51.192;6.788;2024-02-28T15:24:41;20.50;53.80
909;DHT22;441;51.192;6.788;2024-02-28T15:27:07;20.50;53.80
909;DHT22;441;51.192;6.788;2024-02-28T15:29:34;20.50;53.80
909;DHT22;441;51.192;6.788;2024-02-28T15:32:02;20.60;53.90
909;DHT22;441;51.192;6.788;2024-02-28T15:34:29;20.60;53.70
909;DHT22;441;51.192;6.788;2024-02-28T15:36:56;20.60;53.70
909;DHT22;441;51.192;6.788;2024-02-28T15:39:23;20.60;53.50
909;DHT22;441;51.192;6.788;2024-02-28T15:41:48;20.60;53.40
909;DHT22;441;51.192;6.788;2024-02-28T15:44:17;20.60;53.40
909;DHT22;441;51.192;6.788;2024-02-28T15:46:43;20.70;53.30
909;DHT22;441;51.192;6.788;2024-02-28T15:49:11;20.60;53.20
909;DHT22;441;51.192;6.788;2024-02-28T15:51:38;20.70;53.20
909;DHT22;441;51.192;6.788;2024-02-28T15:54:05;20.70;53.10
909;DHT22;441;51.192;6.788;2024-02-28T15:56:33;20.70;53.10
909;DHT22;441;51.192;6.788;2024-02-28T15:59:00;20.70;53.00
909;DHT22;441;51.192;6.788;2024-02-28T16:01:27;20.70;52.90
909;DHT22;441;51.192;6.788;2024-02-28T16:03:54;20.70;52.90
909;DHT22;441;51.192;6.788;2024-02-28T16:06:22;20.70;52.80
909;DHT22;441;51.192;6.788;2024-02-28T16:08:49;20.70;52.60
909;DHT22;441;51.192;6.788;2024-02-28T16:11:16;20.70;52.90
909;DHT22;441;51.192;6.788;2024-02-28T16:13:43;20.70;53.10
909;DHT22;441;51.192;6.788;2024-02-28T16:16:13;20.70;53.20
909;DHT22;441;51.192;6.788;2024-02-28T16:18:41;20.70;53.20
909;DHT22;441;51.192;6.788;2024-02-28T16:21:08;20.70;53.20
909;DHT22;441;51.192;6.788;2024-02-28T16:23:36;20.70;53.20
909;DHT22;441;51.192;6.788;2024-02-28T16:26:03;20.70;53.20
909;DHT22;441;51.192;6.788;2024-02-28T16:28:30;20.70;53.20
909;DHT22;441;51.192;6.788;2024-02-28T16:30:57;20.80;53.70
909;DHT22;441;51.192;6.788;2024-02-28T16:33:25;20.80;53.80